createdAt,value
2022-08-17T00:00:43.019Z,16.61
2022-08-17T00:01:51.762Z,16.73
2022-08-17T00:03:15.406Z,16.78
2022-08-17T00:04:28.101Z,16.59
2022-08-17T00:05:44.390Z,16.90
2022-08-17T00:06:54.744Z,17.08
2022-08-17T00:08:03.030Z,17.00
2022-08-17T00:09:12.304Z,17.06
2022-08-17T00:10:26.317Z,17.14
2022-08-17T00:11:40.979Z,17.22
2022-08-17T00:12:50.335Z,17.29
2022-08-17T00:14:06.602Z,17.40
2022-08-17T00:15:16.948Z,17.48
2022-08-17T00:16:56.169Z,17.32
2022-08-17T00:18:03.124Z,17.55
2022-08-17T00:19:14.063Z,17.58
2022-08-17T00:20:23.428Z,17.63
2022-08-17T00:22:32.814Z,17.45
2022-08-17T00:23:19.348Z,17.44
2022-08-17T00:24:27.012Z,17.55
2022-08-17T00:25:35.788Z,17.74
2022-08-17T00:26:45.742Z,17.87
2022-08-17T00:27:54.952Z,17.80
2022-08-17T00:29:07.827Z,17.98
2022-08-17T00:30:17.926Z,18.06
2022-08-17T00:31:25.155Z,17.90
2022-08-17T00:33:14.162Z,17.85
2022-08-17T00:34:08.062Z,18.12
2022-08-17T00:35:16.168Z,18.46
2022-08-17T00:36:25.306Z,18.72
2022-08-17T00:37:32.483Z,18.75
2022-08-17T00:38:40.606Z,18.93
2022-08-17T00:39:51.734Z,19.01
2022-08-17T00:41:17.157Z,18.98
2022-08-17T00:42:31.166Z,18.98
2022-08-17T00:43:57.629Z,19.22
2022-08-17T00:45:07.929Z,19.32
2022-08-17T00:46:28.231Z,19.19
2022-08-17T00:47:37.373Z,19.18
2022-08-17T00:48:46.395Z,19.22
2022-08-17T00:49:56.192Z,19.21
2022-08-17T00:51:09.287Z,19.42
2022-08-17T00:52:21.884Z,19.45
2022-08-17T00:53:30.813Z,19.48
2022-08-17T00:54:41.902Z,19.57
2022-08-17T00:55:52.167Z,19.59
2022-08-17T00:57:06.504Z,19.90
2022-08-17T00:58:14.552Z,20.13
2022-08-17T00:59:25.104Z,19.97
2022-08-17T01:00:44.777Z,20.12
2022-08-17T01:01:56.987Z,20.19
2022-08-17T01:03:15.303Z,20.24
2022-08-17T01:04:24.585Z,20.43
2022-08-17T01:05:36.087Z,20.58
2022-08-17T01:06:50.893Z,20.69
2022-08-17T01:08:02.602Z,20.62
2022-08-17T01:09:11.377Z,20.51
2022-08-17T01:10:57.150Z,20.58
2022-08-17T01:11:48.218Z,20.66
2022-08-17T01:12:57.929Z,20.77
2022-08-17T01:14:05.132Z,20.85
2022-08-17T01:15:14.266Z,20.96
2022-08-17T01:16:31.447Z,21.12
2022-08-17T01:17:38.971Z,21.21
2022-08-17T01:18:47.933Z,21.36
2022-08-17T01:19:57.168Z,21.53
2022-08-17T01:21:09.635Z,21.72
2022-08-17T01:22:29.223Z,21.87
2022-08-17T01:23:41.351Z,21.55
2022-08-17T01:25:03.033Z,21.90
2022-08-17T01:26:12.462Z,21.80
2022-08-17T01:27:20.682Z,21.89
2022-08-17T01:28:52.999Z,22.21
2022-08-17T01:30:57.398Z,22.19
2022-08-17T01:31:43.240Z,22.38
2022-08-17T01:32:51.885Z,22.55
2022-08-17T01:34:02.562Z,23.02
2022-08-17T01:35:10.571Z,23.43
2022-08-17T01:36:17.661Z,23.54
2022-08-17T01:37:33.845Z,23.83
2022-08-17T01:38:44.017Z,23.87
2022-08-17T01:39:56.179Z,23.94
2022-08-17T01:41:07.483Z,23.90
2022-08-17T01:42:29.200Z,23.80
2022-08-17T01:43:51.116Z,23.80
2022-08-17T01:45:00.234Z,23.75
2022-08-17T01:46:09.377Z,23.86
2022-08-17T01:47:18.073Z,23.92
2022-08-17T01:48:25.615Z,23.89
2022-08-17T01:49:34.877Z,23.93
2022-08-17T01:50:44.965Z,24.24
2022-08-17T01:51:56.319Z,24.15
2022-08-17T01:53:09.393Z,24.18
2022-08-17T01:54:18.583Z,24.38
2022-08-17T01:55:31.015Z,24.37
2022-08-17T01:56:42.366Z,24.26
2022-08-17T01:57:50.796Z,24.43
2022-08-17T01:58:58.579Z,24.49
2022-08-17T02:00:13.563Z,24.53
2022-08-17T02:01:22.647Z,24.75
2022-08-17T02:02:30.644Z,24.84
2022-08-17T02:03:38.912Z,24.99
2022-08-17T02:04:46.871Z,25.31
2022-08-17T02:05:54.874Z,25.53
2022-08-17T02:07:03.401Z,25.58
2022-08-17T02:08:19.894Z,25.78
2022-08-17T02:09:30.119Z,25.89
2022-08-17T02:10:39.109Z,26.09
2022-08-17T02:11:57.998Z,26.25
2022-08-17T02:13:07.497Z,26.55
2022-08-17T02:14:15.207Z,26.74
2022-08-17T02:15:25.209Z,27.13
2022-08-17T02:16:37.797Z,27.38
2022-08-17T02:17:48.224Z,27.66
2022-08-17T02:19:04.690Z,28.03
2022-08-17T02:20:12.443Z,28.18
2022-08-17T02:21:20.195Z,28.44
2022-08-17T02:22:28.040Z,28.75
2022-08-17T02:23:42.360Z,29.01
2022-08-17T02:25:00.983Z,29.16
2022-08-17T02:26:11.783Z,29.24
2022-08-17T02:27:35.313Z,29.24
2022-08-17T02:28:46.541Z,29.35
2022-08-17T02:29:58.041Z,29.46
2022-08-17T02:31:14.078Z,29.67
2022-08-17T02:32:28.243Z,29.87
2022-08-17T02:33:42.805Z,30.06
2022-08-17T02:34:54.462Z,30.47
2022-08-17T02:36:01.712Z,30.41
2022-08-17T02:37:10.820Z,30.73
2022-08-17T02:38:20.886Z,30.85
2022-08-17T02:39:32.064Z,31.00
2022-08-17T02:40:42.306Z,30.95
2022-08-17T02:42:05.167Z,30.79
2022-08-17T02:43:16.299Z,30.22
2022-08-17T02:44:40.010Z,29.76
2022-08-17T02:45:53.209Z,30.18
2022-08-17T02:47:00.712Z,30.17
2022-08-17T02:48:09.520Z,29.98
2022-08-17T02:49:17.502Z,29.41
2022-08-17T02:50:26.078Z,29.26
2022-08-17T02:51:34.407Z,29.29
2022-08-17T02:52:44.585Z,29.21
2022-08-17T02:54:03.892Z,29.13
2022-08-17T02:55:30.600Z,29.06
2022-08-17T02:56:39.542Z,29.14
2022-08-17T02:57:48.827Z,29.32
2022-08-17T02:58:59.068Z,29.36
2022-08-17T03:00:23.365Z,29.46
2022-08-17T03:01:32.189Z,29.60
2022-08-17T03:02:48.449Z,29.73
2022-08-17T03:03:57.649Z,29.90
2022-08-17T03:05:06.136Z,30.02
2022-08-17T03:06:13.202Z,30.22
2022-08-17T03:07:21.693Z,30.43
2022-08-17T03:08:32.055Z,30.59
2022-08-17T03:09:42.090Z,31.26
2022-08-17T03:10:51.329Z,32.08
2022-08-17T03:12:05.323Z,32.44
2022-08-17T03:13:15.917Z,32.85
2022-08-17T03:14:25.940Z,33.40
2022-08-17T03:15:34.827Z,33.50
2022-08-17T03:16:42.850Z,33.55
2022-08-17T03:17:54.208Z,33.85
2022-08-17T03:19:01.349Z,34.05
2022-08-17T03:20:09.760Z,34.47
2022-08-17T03:21:17.422Z,34.67
2022-08-17T03:22:36.035Z,34.88
2022-08-17T03:23:48.773Z,34.86
2022-08-17T03:25:04.346Z,35.03
2022-08-17T03:26:23.391Z,35.03
2022-08-17T03:27:42.612Z,35.04
2022-08-17T03:28:57.801Z,35.20
2022-08-17T03:30:08.455Z,35.03
2022-08-17T03:31:19.662Z,35.39
2022-08-17T03:32:28.499Z,35.46
2022-08-17T03:33:36.268Z,35.70
2022-08-17T03:34:44.834Z,35.83
2022-08-17T03:35:52.797Z,35.84
2022-08-17T03:37:04.715Z,36.03
2022-08-17T03:38:15.199Z,36.22
2022-08-17T03:39:25.698Z,36.37
2022-08-17T03:40:58.155Z,36.44
2022-08-17T03:42:32.052Z,36.57
2022-08-17T03:43:42.974Z,36.80
2022-08-17T03:44:53.582Z,37.11
2022-08-17T03:46:34.594Z,37.08
2022-08-17T03:48:07.327Z,37.22
2022-08-17T03:49:37.543Z,37.26
2022-08-17T03:51:14.545Z,37.37
2022-08-17T03:52:51.947Z,37.58
2022-08-17T03:54:22.731Z,37.93
2022-08-17T03:55:52.142Z,38.25
2022-08-17T03:57:03.797Z,38.39
2022-08-17T03:58:16.060Z,38.68
2022-08-17T03:59:24.361Z,38.80
2022-08-17T04:00:40.355Z,38.89
2022-08-17T04:01:53.769Z,38.98
2022-08-17T04:03:09.088Z,39.14
2022-08-17T04:04:17.436Z,39.40
2022-08-17T04:05:25.482Z,39.49
2022-08-17T04:06:35.227Z,39.57
2022-08-17T04:07:43.747Z,39.63
2022-08-17T04:08:52.169Z,39.90
2022-08-17T04:10:01.589Z,39.95
2022-08-17T04:11:13.059Z,40.06
2022-08-17T04:12:22.466Z,40.22
2022-08-17T04:13:30.787Z,40.40
2022-08-17T04:14:53.763Z,40.50
2022-08-17T04:16:13.393Z,40.63
2022-08-17T04:17:24.258Z,40.53
2022-08-17T04:18:37.590Z,40.80
2022-08-17T04:19:47.141Z,41.19
2022-08-17T04:20:55.467Z,41.42
2022-08-17T04:22:07.347Z,41.17
2022-08-17T04:23:16.383Z,41.47
2022-08-17T04:24:27.130Z,41.87
2022-08-17T04:25:35.875Z,41.72
2022-08-17T04:26:53.118Z,41.92
2022-08-17T04:28:09.034Z,41.95
2022-08-17T04:29:27.347Z,42.17
2022-08-17T04:30:56.958Z,42.19
2022-08-17T04:32:05.710Z,42.22
2022-08-17T04:33:23.390Z,42.51
2022-08-17T04:34:30.623Z,42.65
2022-08-17T04:35:43.004Z,42.61
2022-08-17T04:36:51.530Z,42.78
2022-08-17T04:38:02.157Z,42.62
2022-08-17T04:39:13.207Z,42.66
2022-08-17T04:40:41.887Z,42.79
2022-08-17T04:42:19.715Z,42.66
2022-08-17T04:43:30.223Z,42.84
2022-08-17T04:44:39.619Z,43.18
2022-08-17T04:45:56.025Z,43.32
2022-08-17T04:47:13.014Z,43.38
2022-08-17T04:48:22.822Z,43.49
2022-08-17T04:49:39.509Z,43.61
2022-08-17T04:50:50.905Z,43.81
2022-08-17T04:52:04.314Z,43.71
2022-08-17T04:53:14.393Z,43.93
2022-08-17T04:54:23.446Z,44.13
2022-08-17T04:55:33.764Z,43.88
2022-08-17T04:56:41.180Z,43.95
2022-08-17T04:57:48.430Z,43.93
2022-08-17T04:58:58.912Z,44.07
2022-08-17T05:00:08.041Z,44.34
2022-08-17T05:01:16.430Z,44.36
2022-08-17T05:02:34.645Z,44.42
2022-08-17T05:04:00.642Z,44.33
2022-08-17T05:05:32.444Z,44.42
2022-08-17T05:06:41.871Z,44.44
2022-08-17T05:07:54.529Z,44.49
2022-08-17T05:09:02.956Z,44.81
2022-08-17T05:10:13.075Z,44.88
2022-08-17T05:11:20.321Z,45.03
2022-08-17T05:12:30.511Z,45.08
2022-08-17T05:13:39.938Z,45.04
2022-08-17T05:14:50.573Z,45.14
2022-08-17T05:16:02.088Z,45.10
2022-08-17T05:17:11.055Z,44.94
2022-08-17T05:18:19.772Z,44.81
2022-08-17T05:19:28.173Z,44.81
2022-08-17T05:20:39.050Z,45.18
2022-08-17T05:21:47.759Z,45.32
2022-08-17T05:22:57.841Z,45.54
2022-08-17T05:24:06.036Z,45.48
2022-08-17T05:25:37.439Z,45.75
2022-08-17T05:26:45.840Z,45.98
2022-08-17T05:27:55.449Z,45.80
2022-08-17T05:29:04.112Z,45.88
2022-08-17T05:30:12.124Z,45.89
2022-08-17T05:31:20.414Z,45.91
2022-08-17T05:32:48.324Z,45.83
2022-08-17T05:33:59.048Z,46.11
2022-08-17T05:35:10.958Z,46.04
2022-08-17T05:36:42.199Z,46.18
2022-08-17T05:37:52.874Z,46.02
2022-08-17T05:39:00.673Z,46.06
2022-08-17T05:40:09.473Z,45.89
2022-08-17T05:41:19.036Z,46.01
2022-08-17T05:42:26.280Z,45.99
2022-08-17T05:43:36.844Z,46.01
2022-08-17T05:44:45.974Z,46.06
2022-08-17T05:46:22.533Z,46.42
2022-08-17T05:47:30.853Z,46.63
2022-08-17T05:48:47.412Z,46.47
2022-08-17T05:49:57.309Z,46.55
2022-08-17T05:51:28.784Z,46.47
2022-08-17T05:53:24.746Z,46.45
2022-08-17T05:55:13.390Z,46.54
2022-08-17T05:56:30.646Z,46.47
2022-08-17T05:57:56.322Z,46.65
2022-08-17T05:59:33.431Z,46.74
2022-08-17T06:01:05.906Z,46.71
2022-08-17T06:02:27.355Z,46.83
2022-08-17T06:03:39.616Z,46.99
2022-08-17T06:04:48.732Z,47.04
2022-08-17T06:06:08.020Z,46.89
2022-08-17T06:07:25.189Z,47.01
2022-08-17T06:08:47.615Z,47.11
2022-08-17T06:10:13.912Z,47.10
2022-08-17T06:11:40.492Z,47.35
2022-08-17T06:13:17.875Z,47.33
2022-08-17T06:14:32.352Z,47.22
2022-08-17T06:15:53.858Z,47.12
2022-08-17T06:17:07.305Z,47.01
2022-08-17T06:18:19.015Z,47.11
2022-08-17T06:19:35.209Z,47.28
2022-08-17T06:20:56.959Z,47.44
2022-08-17T06:22:04.790Z,47.51
2022-08-17T06:23:17.040Z,47.60
2022-08-17T06:24:49.830Z,47.64
2022-08-17T06:26:05.372Z,47.49
2022-08-17T06:27:38.347Z,47.20
2022-08-17T06:29:18.668Z,46.93
2022-08-17T06:30:57.477Z,46.54
2022-08-17T06:32:03.285Z,46.36
2022-08-17T06:33:16.565Z,46.39
2022-08-17T06:34:27.446Z,46.26
2022-08-17T06:36:15.794Z,46.13
2022-08-17T06:37:58.183Z,45.94
2022-08-17T06:39:08.814Z,45.86
2022-08-17T06:40:40.377Z,45.75
2022-08-17T06:42:00.084Z,45.74
2022-08-17T06:43:37.830Z,45.97
2022-08-17T06:44:51.224Z,45.99
2022-08-17T06:46:13.397Z,45.92
2022-08-17T06:47:55.112Z,45.83
2022-08-17T06:49:55.593Z,45.87
2022-08-17T06:51:12.756Z,46.11
2022-08-17T06:52:45.752Z,46.02
2022-08-17T06:54:02.859Z,46.41
2022-08-17T06:55:17.832Z,46.49
2022-08-17T06:56:53.444Z,46.75
2022-08-17T06:58:16.245Z,46.75
2022-08-17T06:59:54.733Z,46.81
2022-08-17T07:01:26.521Z,47.15
2022-08-17T07:02:52.415Z,47.62
2022-08-17T07:04:16.633Z,47.92
2022-08-17T07:05:44.998Z,47.97
2022-08-17T07:07:23.969Z,48.05
2022-08-17T07:09:33.929Z,47.94
2022-08-17T07:10:53.202Z,48.13
2022-08-17T07:12:13.202Z,47.80
2022-08-17T07:13:39.868Z,47.93
2022-08-17T07:15:21.679Z,47.96
2022-08-17T07:16:37.544Z,48.00
2022-08-17T07:17:48.737Z,47.99
2022-08-17T07:18:56.884Z,47.89
2022-08-17T07:20:08.009Z,47.91
2022-08-17T07:21:40.190Z,47.74
2022-08-17T07:23:00.732Z,47.53
2022-08-17T07:24:49.259Z,47.32
2022-08-17T07:26:09.485Z,47.09
2022-08-17T07:27:32.491Z,47.04
2022-08-17T07:28:42.578Z,47.13
2022-08-17T07:29:52.422Z,47.38
2022-08-17T07:31:03.396Z,47.50
2022-08-17T07:32:11.079Z,47.87
2022-08-17T07:33:25.152Z,48.17
2022-08-17T07:34:32.425Z,48.51
2022-08-17T07:35:45.840Z,48.79
2022-08-17T07:37:06.491Z,48.92
2022-08-17T07:38:29.527Z,48.86
2022-08-17T07:40:14.919Z,48.74
2022-08-17T07:41:09.690Z,48.89
2022-08-17T07:42:19.764Z,48.95
2022-08-17T07:43:38.359Z,49.07
2022-08-17T07:44:57.718Z,49.32
2022-08-17T07:46:44.226Z,49.53
2022-08-17T07:48:12.713Z,49.27
2022-08-17T07:49:34.153Z,48.89
2022-08-17T07:50:42.973Z,49.03
2022-08-17T07:52:00.173Z,49.12
2022-08-17T07:53:30.307Z,49.27
2022-08-17T07:54:39.943Z,49.53
2022-08-17T07:55:47.556Z,49.75
2022-08-17T07:57:16.663Z,49.61
2022-08-17T07:58:26.119Z,49.36
2022-08-17T07:59:40.763Z,49.59
2022-08-17T08:01:13.797Z,49.50
2022-08-17T08:02:42.579Z,49.32
2022-08-17T08:03:52.450Z,49.22
2022-08-17T08:05:46.257Z,49.49
2022-08-17T08:06:57.759Z,49.51
2022-08-17T08:08:24.721Z,49.58
2022-08-17T08:09:53.761Z,49.72
2022-08-17T08:11:04.212Z,49.86
2022-08-17T08:12:32.718Z,50.03
2022-08-17T08:13:47.260Z,50.26
2022-08-17T08:15:20.350Z,50.20
2022-08-17T08:16:31.055Z,50.04
2022-08-17T08:17:50.153Z,50.50
2022-08-17T08:19:03.593Z,50.49
2022-08-17T08:20:19.660Z,50.43
2022-08-17T08:21:52.757Z,50.41
2022-08-17T08:23:22.286Z,50.89
2022-08-17T08:25:04.401Z,51.40
2022-08-17T08:26:31.772Z,51.63
2022-08-17T08:27:53.332Z,51.77
2022-08-17T08:29:19.524Z,52.05
2022-08-17T08:30:26.516Z,51.86
2022-08-17T08:31:53.034Z,52.04
2022-08-17T08:33:21.643Z,52.26
2022-08-17T08:35:02.098Z,52.15
2022-08-17T08:37:14.525Z,52.83
2022-08-17T08:38:43.965Z,52.93
2022-08-17T08:40:13.450Z,52.87
2022-08-17T08:41:46.184Z,52.86
2022-08-17T08:43:24.341Z,52.79
2022-08-17T08:45:00.351Z,52.78
2022-08-17T08:46:14.586Z,53.12
2022-08-17T08:47:51.105Z,53.37
2022-08-17T08:49:14.601Z,53.87
2022-08-17T08:50:38.462Z,53.81
2022-08-17T08:51:59.674Z,53.69
2022-08-17T08:53:09.540Z,53.97
2022-08-17T08:54:33.461Z,53.91
2022-08-17T08:56:05.646Z,53.97
2022-08-17T08:57:32.910Z,54.07
2022-08-17T08:59:03.456Z,54.02
2022-08-17T09:00:19.473Z,54.11
2022-08-17T09:01:45.030Z,54.15
2022-08-17T09:03:14.399Z,54.08
2022-08-17T09:04:44.943Z,53.76
2022-08-17T09:06:53.992Z,53.46
2022-08-17T09:08:41.265Z,53.57
2022-08-17T09:10:15.235Z,53.67
2022-08-17T09:11:23.936Z,53.51
2022-08-17T09:12:50.744Z,53.33
2022-08-17T09:14:21.297Z,53.22
2022-08-17T09:15:47.165Z,53.15
2022-08-17T09:17:10.439Z,53.22
2022-08-17T09:19:03.191Z,53.21
2022-08-17T09:20:29.011Z,53.41
2022-08-17T09:21:57.898Z,53.39
2022-08-17T09:23:27.647Z,53.32
2022-08-17T09:24:47.020Z,53.31
2022-08-17T09:26:05.281Z,53.28
2022-08-17T09:27:17.884Z,53.18
2022-08-17T09:28:39.049Z,53.21
2022-08-17T09:30:03.767Z,53.17
2022-08-17T09:31:13.156Z,53.07
2022-08-17T09:32:26.583Z,52.94
2022-08-17T09:33:35.996Z,52.88
2022-08-17T09:34:56.275Z,53.00
2022-08-17T09:36:33.699Z,52.96
2022-08-17T09:38:03.841Z,52.82
2022-08-17T09:39:13.673Z,52.81
2022-08-17T09:40:29.517Z,52.85
2022-08-17T09:41:48.977Z,52.99
2022-08-17T09:43:32.053Z,52.90
2022-08-17T09:45:15.040Z,52.83
2022-08-17T09:46:26.762Z,53.27
2022-08-17T09:47:47.662Z,53.15
2022-08-17T09:49:08.761Z,53.13
2022-08-17T09:51:03.553Z,52.90
2022-08-17T09:52:24.739Z,52.75
2022-08-17T09:53:32.917Z,52.68
2022-08-17T09:54:41.341Z,52.77
2022-08-17T09:56:07.456Z,52.72
2022-08-17T09:57:31.479Z,52.50
2022-08-17T09:58:44.169Z,52.48
2022-08-17T10:00:21.690Z,52.81
2022-08-17T10:01:39.552Z,52.82
2022-08-17T10:03:11.278Z,52.75
2022-08-17T10:04:29.560Z,52.63
2022-08-17T10:05:48.762Z,52.64
2022-08-17T10:07:00.558Z,52.79
2022-08-17T10:08:44.540Z,52.86
2022-08-17T10:09:54.593Z,52.74
2022-08-17T10:11:50.370Z,52.77
2022-08-17T10:13:09.647Z,52.85
2022-08-17T10:14:37.359Z,52.90
2022-08-17T10:16:32.779Z,53.03
2022-08-17T10:17:43.502Z,53.51
2022-08-17T10:19:18.267Z,53.59
2022-08-17T10:20:28.147Z,53.49
2022-08-17T10:22:01.160Z,53.22
2022-08-17T10:23:49.705Z,53.45
2022-08-17T10:25:22.316Z,53.34
2022-08-17T10:26:55.784Z,53.54
2022-08-17T10:28:07.401Z,53.76
2022-08-17T10:29:28.951Z,53.78
2022-08-17T10:30:39.439Z,53.84
2022-08-17T10:31:52.252Z,54.05
2022-08-17T10:33:09.505Z,54.30
2022-08-17T10:34:41.302Z,54.33
2022-08-17T10:36:10.191Z,54.22
2022-08-17T10:37:43.224Z,54.19
2022-08-17T10:39:06.484Z,54.67
2022-08-17T10:40:31.923Z,55.10
2022-08-17T10:41:46.908Z,55.00
2022-08-17T10:43:21.080Z,54.88
2022-08-17T10:44:41.068Z,55.01
2022-08-17T10:46:30.051Z,54.80
2022-08-17T10:48:06.498Z,55.19
2022-08-17T10:49:23.595Z,55.64
2022-08-17T10:51:01.495Z,55.60
2022-08-17T10:52:24.821Z,55.43
2022-08-17T10:53:35.441Z,55.33
2022-08-17T10:54:47.964Z,55.39
2022-08-17T10:56:22.504Z,55.59
2022-08-17T10:57:35.957Z,55.97
2022-08-17T10:58:55.625Z,55.90
2022-08-17T11:00:04.104Z,55.87
2022-08-17T11:01:14.340Z,55.79
2022-08-17T11:02:43.768Z,56.01
2022-08-17T11:03:56.078Z,55.98
2022-08-17T11:05:09.806Z,55.99
2022-08-17T11:06:22.571Z,56.05
2022-08-17T11:08:06.873Z,56.01
2022-08-17T11:09:37.928Z,56.05
2022-08-17T11:10:59.726Z,55.93
2022-08-17T11:12:13.959Z,55.86
2022-08-17T11:13:50.030Z,55.97
2022-08-17T11:15:44.595Z,55.95
2022-08-17T11:17:14.502Z,56.12
2022-08-17T11:18:42.932Z,56.10
2022-08-17T11:20:23.591Z,55.94
2022-08-17T11:22:07.332Z,55.80
2022-08-17T11:23:36.876Z,55.63
2022-08-17T11:24:54.276Z,55.54
2022-08-17T11:26:09.558Z,55.54
2022-08-17T11:27:33.939Z,55.53
2022-08-17T11:28:52.808Z,55.42
2022-08-17T11:30:03.263Z,55.32
2022-08-17T11:31:44.278Z,55.46
2022-08-17T11:32:53.431Z,55.60
2022-08-17T11:34:27.671Z,55.76
2022-08-17T11:35:41.854Z,56.26
2022-08-17T11:37:25.679Z,56.65
2022-08-17T11:38:49.130Z,56.97
2022-08-17T11:40:28.841Z,57.12
2022-08-17T11:42:01.452Z,57.36
2022-08-17T11:43:18.759Z,57.92
2022-08-17T11:44:45.667Z,57.69
2022-08-17T11:46:17.601Z,57.69
2022-08-17T11:48:23.871Z,57.71
2022-08-17T11:50:27.992Z,57.79
2022-08-17T11:52:06.626Z,58.14
2022-08-17T11:53:41.159Z,58.50
2022-08-17T11:54:50.545Z,58.43
2022-08-17T11:56:06.195Z,58.29
2022-08-17T11:57:22.883Z,58.18
2022-08-17T11:58:33.095Z,58.38
2022-08-17T11:59:44.894Z,58.31
2022-08-17T12:00:57.369Z,58.70
2022-08-17T12:02:06.094Z,58.53
2022-08-17T12:03:39.395Z,58.25
2022-08-17T12:05:05.144Z,58.22
2022-08-17T12:06:30.757Z,58.21
2022-08-17T12:08:09.582Z,58.22
2022-08-17T12:09:26.073Z,58.34
2022-08-17T12:10:35.569Z,58.49
2022-08-17T12:12:13.117Z,58.79
2022-08-17T12:13:33.977Z,59.44
2022-08-17T12:15:10.224Z,59.56
2022-08-17T12:16:19.776Z,59.78
2022-08-17T12:17:41.184Z,60.02
2022-08-17T12:18:54.286Z,60.10
2022-08-17T12:20:34.244Z,60.13
2022-08-17T12:21:55.760Z,60.12
2022-08-17T12:23:27.676Z,60.10
2022-08-17T12:25:01.976Z,60.32
2022-08-17T12:26:22.666Z,60.24
2022-08-17T12:27:46.224Z,59.89
2022-08-17T12:29:09.511Z,59.52
2022-08-17T12:30:26.771Z,59.71
2022-08-17T12:31:37.348Z,60.19
2022-08-17T12:32:48.845Z,60.62
2022-08-17T12:33:56.116Z,60.96
2022-08-17T12:35:04.715Z,61.34
2022-08-17T12:36:14.183Z,61.49
2022-08-17T12:37:32.874Z,61.20
2022-08-17T12:38:40.177Z,60.91
2022-08-17T12:40:10.575Z,60.73
2022-08-17T12:41:33.486Z,60.76
2022-08-17T12:42:42.911Z,60.91
2022-08-17T12:43:57.371Z,61.33
2022-08-17T12:45:06.280Z,61.35
2022-08-17T12:46:18.750Z,61.44
2022-08-17T12:47:26.064Z,62.17
2022-08-17T12:48:38.345Z,62.58
2022-08-17T12:49:47.319Z,62.96
2022-08-17T12:51:12.721Z,63.23
2022-08-17T12:52:34.033Z,63.51
2022-08-17T12:53:44.112Z,63.78
2022-08-17T12:55:07.009Z,63.65
2022-08-17T12:56:16.124Z,63.59
2022-08-17T12:57:30.304Z,63.52
2022-08-17T12:58:45.621Z,63.58
2022-08-17T13:00:21.586Z,63.59
2022-08-17T13:01:32.317Z,63.34
2022-08-17T13:03:20.877Z,63.35
2022-08-17T13:04:29.968Z,63.36
2022-08-17T13:05:44.946Z,63.18
2022-08-17T13:06:59.865Z,63.40
2022-08-17T13:08:19.370Z,63.39
2022-08-17T13:09:35.842Z,63.56
2022-08-17T13:11:03.604Z,63.44
2022-08-17T13:12:12.151Z,63.60
2022-08-17T13:13:27.590Z,63.68
2022-08-17T13:14:37.632Z,63.74
2022-08-17T13:15:54.515Z,63.77
2022-08-17T13:17:12.703Z,63.57
2022-08-17T13:18:42.092Z,63.34
2022-08-17T13:19:52.241Z,63.16
2022-08-17T13:21:00.848Z,63.42
2022-08-17T13:22:13.411Z,63.35
2022-08-17T13:23:21.845Z,63.14
2022-08-17T13:24:38.150Z,63.06
2022-08-17T13:26:08.419Z,63.05
2022-08-17T13:27:16.813Z,63.43
2022-08-17T13:28:30.659Z,63.81
2022-08-17T13:30:01.616Z,63.86
2022-08-17T13:31:51.893Z,63.90
2022-08-17T13:33:05.384Z,63.55
2022-08-17T13:34:19.634Z,63.12
2022-08-17T13:35:38.966Z,62.81
2022-08-17T13:36:48.904Z,62.48
2022-08-17T13:38:09.006Z,62.16
2022-08-17T13:39:24.367Z,61.91
2022-08-17T13:40:33.974Z,61.75
2022-08-17T13:41:41.287Z,61.40
2022-08-17T13:42:54.291Z,61.10
2022-08-17T13:44:03.180Z,60.79
2022-08-17T13:45:42.198Z,60.42
2022-08-17T13:46:57.329Z,60.05
2022-08-17T13:48:23.871Z,60.04
2022-08-17T13:49:41.980Z,60.08
2022-08-17T13:50:58.657Z,60.22
2022-08-17T13:52:07.611Z,60.09
2022-08-17T13:53:51.994Z,59.88
2022-08-17T13:54:59.213Z,59.14
2022-08-17T13:56:37.223Z,58.29
2022-08-17T13:57:40.007Z,57.80
2022-08-17T13:59:09.377Z,57.42
2022-08-17T14:00:38.315Z,56.92
2022-08-17T14:01:52.798Z,56.34
2022-08-17T14:03:03.261Z,55.42
2022-08-17T14:04:18.181Z,54.53
2022-08-17T14:05:28.190Z,54.09
2022-08-17T14:07:01.357Z,53.39
2022-08-17T14:08:08.793Z,52.66
2022-08-17T14:09:16.702Z,52.38
2022-08-17T14:10:25.333Z,52.01
2022-08-17T14:11:32.490Z,51.53
2022-08-17T14:12:40.716Z,51.23
2022-08-17T14:13:48.197Z,50.64
2022-08-17T14:14:58.298Z,50.32
2022-08-17T14:16:05.821Z,49.73
2022-08-17T14:17:13.087Z,49.48
2022-08-17T14:18:50.675Z,49.09
2022-08-17T14:19:49.693Z,48.42
2022-08-17T14:20:58.704Z,48.09
2022-08-17T14:22:06.680Z,47.64
2022-08-17T14:23:16.435Z,47.51
2022-08-17T14:24:26.799Z,47.12
2022-08-17T14:25:35.966Z,47.14
2022-08-17T14:26:46.076Z,46.71
2022-08-17T14:27:56.863Z,46.36
2022-08-17T14:29:12.677Z,46.27
2022-08-17T14:30:26.783Z,45.89
2022-08-17T14:31:38.240Z,45.31
2022-08-17T14:32:49.845Z,44.68
2022-08-17T14:33:57.426Z,44.11
2022-08-17T14:35:07.710Z,44.17
2022-08-17T14:36:15.438Z,43.99
2022-08-17T14:37:23.271Z,43.52
2022-08-17T14:38:31.133Z,43.03
2022-08-17T14:39:39.744Z,43.16
2022-08-17T14:40:51.263Z,43.22
2022-08-17T14:41:59.914Z,42.94
2022-08-17T14:43:07.548Z,42.66
2022-08-17T14:44:18.011Z,42.62
2022-08-17T14:45:30.293Z,42.34
2022-08-17T14:46:52.226Z,41.99
2022-08-17T14:48:00.704Z,42.34
2022-08-17T14:49:08.803Z,42.30
2022-08-17T14:50:22.533Z,42.28
2022-08-17T14:51:32.070Z,42.06
2022-08-17T14:52:43.653Z,41.78
2022-08-17T14:53:52.938Z,41.81
2022-08-17T14:55:02.051Z,41.35
2022-08-17T14:56:13.074Z,40.92
2022-08-17T14:57:34.261Z,40.80
2022-08-17T14:58:47.769Z,40.62
2022-08-17T14:59:58.306Z,40.41
2022-08-17T15:01:09.880Z,40.38
2022-08-17T15:02:19.767Z,40.16
2022-08-17T15:03:27.572Z,39.90
2022-08-17T15:04:35.323Z,39.78
2022-08-17T15:05:45.861Z,39.24
2022-08-17T15:06:55.947Z,38.98
2022-08-17T15:08:05.518Z,39.17
2022-08-17T15:09:18.162Z,39.22
2022-08-17T15:10:26.123Z,39.30
2022-08-17T15:11:34.224Z,39.33
2022-08-17T15:12:43.637Z,39.59
2022-08-17T15:13:54.544Z,39.64
2022-08-17T15:15:04.696Z,39.37
2022-08-17T15:16:15.295Z,39.39
2022-08-17T15:17:25.456Z,39.33
2022-08-17T15:18:54.138Z,39.57
2022-08-17T15:20:01.511Z,39.78
2022-08-17T15:21:09.630Z,39.60
2022-08-17T15:22:28.343Z,39.15
2022-08-17T15:23:38.213Z,39.21
2022-08-17T15:24:48.525Z,38.73
2022-08-17T15:25:58.554Z,38.24
2022-08-17T15:27:08.565Z,37.76
2022-08-17T15:28:16.792Z,37.57
2022-08-17T15:29:24.896Z,37.24
2022-08-17T15:30:34.343Z,37.11
2022-08-17T15:31:45.311Z,36.74
2022-08-17T15:32:55.534Z,36.73
2022-08-17T15:34:08.061Z,36.59
2022-08-17T15:35:18.518Z,36.12
2022-08-17T15:36:26.109Z,35.72
2022-08-17T15:37:35.404Z,35.56
2022-08-17T15:38:44.511Z,34.85
2022-08-17T15:39:54.608Z,34.21
2022-08-17T15:41:06.251Z,33.84
2022-08-17T15:42:17.908Z,33.67
2022-08-17T15:43:35.630Z,33.60
2022-08-17T15:44:46.132Z,33.44
2022-08-17T15:46:08.078Z,33.29
2022-08-17T15:47:19.592Z,32.83
2022-08-17T15:48:43.900Z,32.67
2022-08-17T15:49:59.991Z,32.71
2022-08-17T15:51:20.273Z,32.16
2022-08-17T15:52:29.642Z,31.94
2022-08-17T15:53:39.408Z,31.71
2022-08-17T15:55:02.482Z,31.61
2022-08-17T15:56:11.560Z,31.15
2022-08-17T15:57:19.408Z,30.99
2022-08-17T15:58:33.328Z,30.94
2022-08-17T15:59:45.418Z,30.76
2022-08-17T16:01:16.570Z,30.48
2022-08-17T16:03:14.561Z,29.94
2022-08-17T16:04:06.810Z,29.41
2022-08-17T16:05:35.991Z,29.25
2022-08-17T16:06:46.610Z,29.27
2022-08-17T16:07:54.467Z,28.74
2022-08-17T16:09:02.611Z,27.85
2022-08-17T16:10:15.329Z,27.79
2022-08-17T16:11:28.325Z,28.46
2022-08-17T16:12:36.075Z,28.26
2022-08-17T16:13:54.726Z,27.87
2022-08-17T16:15:06.604Z,27.97
2022-08-17T16:16:14.058Z,27.81
2022-08-17T16:17:39.127Z,27.32
2022-08-17T16:18:58.638Z,27.57
2022-08-17T16:20:20.512Z,27.76
2022-08-17T16:21:43.133Z,27.62
2022-08-17T16:22:56.878Z,27.60
2022-08-17T16:24:12.703Z,27.38
2022-08-17T16:25:51.876Z,27.54
2022-08-17T16:27:04.800Z,27.40
2022-08-17T16:28:35.812Z,27.25
2022-08-17T16:29:45.722Z,27.05
2022-08-17T16:31:02.153Z,27.22
2022-08-17T16:32:18.554Z,27.18
2022-08-17T16:33:25.695Z,26.96
2022-08-17T16:34:35.718Z,26.81
2022-08-17T16:35:46.075Z,26.57
2022-08-17T16:36:57.577Z,26.72
2022-08-17T16:38:07.138Z,26.31
2022-08-17T16:39:19.224Z,26.65
2022-08-17T16:40:35.734Z,26.99
2022-08-17T16:41:55.720Z,26.89
2022-08-17T16:43:05.788Z,26.91